createdAt,value
2022-08-22T05:04:24.477Z,99.90
2022-08-22T05:09:31.877Z,99.90
2022-08-22T05:14:43.533Z,99.90
2022-08-22T05:19:53.152Z,99.90
2022-08-22T05:25:01.490Z,99.90
2022-08-22T05:30:13.546Z,99.90
2022-08-22T05:35:19.573Z,99.90
2022-08-22T05:40:29.121Z,99.90
2022-08-22T05:45:34.540Z,99.90
2022-08-22T05:50:43.255Z,99.90
2022-08-22T05:56:12.549Z,99.90
2022-08-22T06:01:34.495Z,99.90
2022-08-22T06:06:48.089Z,99.90
2022-08-22T06:12:05.347Z,99.90
2022-08-22T06:17:23.058Z,99.90
2022-08-22T06:22:33.970Z,99.90
2022-08-22T06:27:37.909Z,99.90
2022-08-22T06:32:59.564Z,99.90
2022-08-22T06:38:03.411Z,99.90
2022-08-22T06:43:06.296Z,99.90
2022-08-22T06:48:08.478Z,99.90
2022-08-22T06:53:38.439Z,99.90
2022-08-22T06:58:50.935Z,99.90
2022-08-22T07:04:05.209Z,99.90
2022-08-22T07:09:20.870Z,99.90
2022-08-22T07:14:32.468Z,99.90
2022-08-22T07:20:31.704Z,99.90
2022-08-22T07:25:54.278Z,99.90
2022-08-22T07:30:59.287Z,99.90
2022-08-22T07:43:31.610Z,99.90
2022-08-22T07:49:09.886Z,99.90
2022-08-22T07:54:17.254Z,99.90
2022-08-22T07:59:21.448Z,99.90
2022-08-22T08:04:30.401Z,99.90
2022-08-22T08:09:41.144Z,99.90
2022-08-22T08:14:51.734Z,99.90
2022-08-22T08:19:55.442Z,99.90
2022-08-22T08:25:02.739Z,99.90
2022-08-22T08:30:35.591Z,99.90
2022-08-22T08:36:03.489Z,99.90
2022-08-22T08:41:37.639Z,99.90
2022-08-22T08:47:18.982Z,99.90
2022-08-22T08:52:31.800Z,99.90
2022-08-22T08:57:54.891Z,99.90
2022-08-22T09:03:31.114Z,99.90
2022-08-22T09:09:04.391Z,99.90
2022-08-22T09:14:54.116Z,99.90
2022-08-22T09:20:02.323Z,99.90
2022-08-22T09:25:49.864Z,99.90
2022-08-22T09:31:21.807Z,99.90
2022-08-22T09:37:08.037Z,99.90
2022-08-22T09:42:38.169Z,99.90
2022-08-22T09:48:27.613Z,99.90
2022-08-22T09:53:50.983Z,99.90
2022-08-22T09:59:05.005Z,99.90
2022-08-22T10:04:47.977Z,99.90
2022-08-22T10:10:27.361Z,99.90
2022-08-22T10:17:08.997Z,99.90
2022-08-22T10:22:21.260Z,99.90
2022-08-22T10:28:12.466Z,99.90
2022-08-22T10:33:34.827Z,99.90
2022-08-22T10:38:47.066Z,99.90
2022-08-22T10:44:28.319Z,99.90
2022-08-22T10:50:39.306Z,99.90
2022-08-22T10:56:04.864Z,99.90
2022-08-22T11:01:40.503Z,99.90
2022-08-22T11:07:07.731Z,99.90
2022-08-22T11:12:45.736Z,99.90
2022-08-22T11:18:14.873Z,99.90
2022-08-22T11:23:55.625Z,99.90
2022-08-22T11:36:08.721Z,99.90
2022-08-22T11:41:43.229Z,99.90
2022-08-22T11:46:50.079Z,99.90
2022-08-22T11:52:24.365Z,99.90
2022-08-22T11:58:20.028Z,99.90
2022-08-22T12:03:32.642Z,99.90
2022-08-22T12:09:24.803Z,99.90
2022-08-22T12:15:18.359Z,99.90
2022-08-22T12:20:41.464Z,99.90
2022-08-22T12:26:57.703Z,99.90
2022-08-22T12:32:43.900Z,94.20
2022-08-22T12:38:28.002Z,99.90
2022-08-22T12:43:47.109Z,99.90
2022-08-22T12:49:23.186Z,90.60
2022-08-22T12:54:50.182Z,88.30
2022-08-22T13:00:26.759Z,94.20
2022-08-22T13:05:37.886Z,99.90
2022-08-22T13:10:48.706Z,90.40
2022-08-22T13:22:45.449Z,60.40
2022-08-22T13:27:52.247Z,78.60
2022-08-22T13:33:04.926Z,80.50
2022-08-22T13:38:50.282Z,74.70
2022-08-22T13:44:15.619Z,69.60
2022-08-22T13:49:35.848Z,74.50
2022-08-22T13:55:02.635Z,72.40
2022-08-22T14:00:39.257Z,77.80
2022-08-22T14:06:37.277Z,67.90
2022-08-22T14:11:51.808Z,72.90
2022-08-22T14:16:58.560Z,78.10
2022-08-22T14:22:08.353Z,74.00
2022-08-22T14:27:46.685Z,87.60
2022-08-22T14:33:00.700Z,84.40
2022-08-22T14:38:37.216Z,92.60
2022-08-22T14:43:53.263Z,64.60
2022-08-22T14:49:19.382Z,66.70
2022-08-22T14:54:29.055Z,70.20
2022-08-22T14:59:50.171Z,70.10
2022-08-22T15:04:55.053Z,62.30
2022-08-22T15:10:11.755Z,65.50
2022-08-22T15:15:29.990Z,61.00
2022-08-22T15:20:45.420Z,63.80
2022-08-22T15:26:18.803Z,68.10
2022-08-22T15:31:22.378Z,57.50
2022-08-22T15:36:27.440Z,59.90
2022-08-22T15:41:44.285Z,60.10
2022-08-22T15:47:34.844Z,57.50
2022-08-22T15:53:10.421Z,57.00
2022-08-22T15:58:22.770Z,59.90
2022-08-22T16:03:32.424Z,57.00
2022-08-22T16:08:37.411Z,58.50
2022-08-22T16:13:44.269Z,58.90
2022-08-22T16:18:49.412Z,58.00
2022-08-22T16:23:52.963Z,57.00
2022-08-22T16:29:07.369Z,57.90
2022-08-22T16:34:18.534Z,55.20
2022-08-22T16:39:23.776Z,55.60
2022-08-22T16:44:28.624Z,53.40
2022-08-22T16:49:37.036Z,53.00
2022-08-22T16:54:47.001Z,53.30
2022-08-22T17:00:27.629Z,51.00
2022-08-22T17:05:59.861Z,52.40
2022-08-22T17:11:22.966Z,54.60
2022-08-22T17:17:10.494Z,53.50
2022-08-22T17:22:30.123Z,52.80
2022-08-22T17:27:44.440Z,52.50
2022-08-22T17:33:17.568Z,52.70
2022-08-22T17:38:42.096Z,52.30
2022-08-22T17:44:05.875Z,55.80
2022-08-22T17:49:55.997Z,55.70
2022-08-22T17:55:19.150Z,57.10
2022-08-22T18:00:31.827Z,56.30
2022-08-22T18:06:17.185Z,55.70
2022-08-22T18:11:40.068Z,56.00
2022-08-22T18:16:46.407Z,55.90
2022-08-22T18:22:19.486Z,57.10
2022-08-22T18:27:35.786Z,57.80
2022-08-22T18:33:01.364Z,59.80
2022-08-22T18:38:21.011Z,61.50
2022-08-22T18:43:48.227Z,63.40
2022-08-22T18:49:14.036Z,61.90
2022-08-22T18:54:12.449Z,64.20
2022-08-22T18:59:54.837Z,61.90
2022-08-22T19:05:51.614Z,66.60
2022-08-22T19:11:56.471Z,68.70
